ADDS METAR Data INFO
IDs: Format: Raw Decoded Include TAF

Data at: 2053 UTC 19 Jul 2018

KSJC 191953Z 28006KT 10SM FEW060 SCT100 SCT150 28/15 A2991 RMK AO2 SLP127 T02780150
KSJC 191853Z 30008KT 10SM FEW070 SCT100 SCT150 27/15 A2992 RMK AO2 SLP132 T02670150
KSJC 191753Z 00000KT 10SM FEW070 SCT100 BKN150 25/13 A2994 RMK AO2 SLP138 T02500128 10250 20156 58003
KSJC 191653Z 00000KT 10SM FEW008 SCT100 BKN150 22/13 A2995 RMK AO2 SLP142 T02170133
KSJC 191553Z 00000KT 10SM FEW008 SCT100 BKN150 19/13 A2996 RMK AO2 SLP145 T01940133
KSJC 191453Z 00000KT 10SM FEW008 FEW080 18/13 A2995 RMK AO2 SLP141 T01780128 51008
KSJC 191353Z 13004KT 8SM FEW007 FEW027 SCT070 16/13 A2994 RMK AO2 SLP138 T01610128
KSJC 191253Z 34004KT 10SM FEW007 FEW027 SCT070 17/14 A2993 RMK AO2 SLP135 T01670144
KSJC 191153Z AUTO 33004KT 10SM CLR 17/14 A2992 RMK AO2 SLP132 T01670144 10194 20161 50000
KSJC 191053Z AUTO 30003KT 10SM CLR 17/14 A2993 RMK AO2 SLP133 T01670144
KSJC 190953Z AUTO 30004KT 10SM CLR 17/14 A2993 RMK AO2 SLP133 T01670144
KSJC 190853Z AUTO 29006KT 10SM CLR 17/15 A2992 RMK AO2 SLP132 T01720150 58006
KSJC 190753Z AUTO 30004KT 10SM CLR 17/15 A2993 RMK AO2 SLP136 T01720150 402890167
KSJC 190653Z 30006KT 10SM FEW070 18/16 A2994 RMK AO2 SLP137 LAST T01830156
KSJC 190553Z 31005KT 10SM FEW070 19/15 A2994 RMK AO2 SLP138 T01940150 10278 20189 50010
KSJC 190453Z 31006KT 10SM FEW065 19/15 A2994 RMK AO2 SLP139 T01940150
KSJC 190353Z 30009KT 10SM FEW055 FEW075 FEW100 21/15 A2992 RMK AO2 SLP131 T02060150
KSJC 190253Z 30008KT 10SM FEW055 FEW090 SCT120 22/16 A2991 RMK AO2 SLP129 T02220156 55000
KSJC 190153Z 28011KT 10SM FEW060 SCT090 SCT120 24/16 A2990 RMK AO2 SLP125 T02440156
KSJC 190053Z 29010KT 10SM FEW060 SCT090 SCT140 26/16 A2991 RMK AO2 SLP126 T02610156
KSJC 182353Z 28010KT 10SM FEW060 SCT090 27/16 A2991 RMK AO2 SLP129 T02720161 10289 20228 56012
KSJC 182253Z 31011KT 10SM FEW060 SCT100 SCT140 28/16 A2992 RMK AO2 SLP131 T02780156
KSJC 182153Z 32009KT 10SM FEW060 SCT100 BKN140 28/16 A2994 RMK AO2 SLP137 T02780156
KSJC 182053Z 30009KT 10SM FEW060 SCT100 BKN140 28/16 A2995 RMK AO2 SLP141 T02830161 58012
KSJC 181953Z 29006KT 10SM FEW080 SCT110 BKN160 28/16 A2996 RMK AO2 SLP145 T02780156
KSJC 181853Z 30005KT 10SM FEW080 SCT110 BKN150 25/15 A2998 RMK AO2 SLP152 T02500150
KSJC 181753Z 31004KT 9SM FEW100 FEW160 23/16 A2999 RMK AO2 SLP153 T02280156 10233 20167 50000
KSJC 181653Z VRB03KT 7SM FEW013 FEW110 22/15 A2999 RMK AO2 SLP155 T02220150
KSJC 181553Z 00000KT 5SM HZ FEW001 FEW008 SCT014 19/15 A3000 RMK AO2 SLP156 T01940150
KSJC 181453Z 00000KT 5SM HZ FEW001 BKN009 OVC012 18/15 A2999 RMK AO2 SLP153 T01780150 53004
KSJC 181353Z 00000KT 6SM BR FEW001 BKN008 OVC012 17/15 A2997 RMK AO2 SLP149 T01720150
KSJC 181253Z 00000KT 4SM BR FEW001 BKN008 OVC010 17/15 A2997 RMK AO2 SLP147 T01720150
KSJC 181153Z AUTO 00000KT 8SM OVC007 17/15 A2997 RMK AO2 SLP149 T01670150 10183 20167 55001
KSJC 181053Z AUTO 33005KT 8SM OVC007 17/15 A2997 RMK AO2 SLP148 T01670150
KSJC 180953Z AUTO 34004KT 8SM BKN009 17/15 A2997 RMK AO2 SLP148 T01670150